Alferez Fap David Figueroa Fernandini Airport


Codes: SPNC/HUU
Name: Alferez Fap David Figueroa Fernandini Airport
City: Huanuco
Country: Peru
Elevation: 6070 ft.
Wikipedia:

Photos at Alferez Fap David Figueroa Fernandini Airport


   Photos courtesy of SpottingLog. You can add your own sightings and photos by signing up for a free trial today.



No photos found.

Weather at Alferez Fap David Figueroa Fernandini Airport


Time (UTC)DescriptionTempratureWindCloud coverageVisibilityPressureHumidity
16-Jun-2024 03:00Light Rain18°C4 mph, 71%10000m1019hPa89%
16-Jun-2024 06:00Broken Clouds17°C2 mph, NE80%10000m1019hPa89%
16-Jun-2024 09:00Overcast Clouds17°C0 mph, NE87%10000m1018hPa83%
16-Jun-2024 12:00Light Rain16°C2 mph, N74%10000m1021hPa86%
16-Jun-2024 15:00Few Clouds21°C4 mph, NE20%10000m1020hPa65%
16-Jun-2024 18:00Light Rain24°C9 mph, NE30%10000m1015hPa53%
16-Jun-2024 21:00Light Rain21°C9 mph, NE49%10000m1015hPa70%
17-Jun-2024 00:00Light Rain16°C4 mph, NE59%10000m1019hPa94%
17-Jun-2024 03:00Overcast Clouds16°C2 mph, NE87%10000m1020hPa93%
17-Jun-2024 06:00Light Rain16°C0 mph, SW96%10000m1019hPa92%
17-Jun-2024 09:00Light Rain16°C2 mph, SW90%10000m1018hPa90%
17-Jun-2024 12:00Broken Clouds16°C0 mph, E67%10000m1019hPa85%
17-Jun-2024 15:00Scattered Clouds21°C7 mph, NE29%10000m1017hPa63%
17-Jun-2024 18:00Scattered Clouds24°C9 mph, NE36%10000m1013hPa53%
17-Jun-2024 21:00Light Rain22°C9 mph, NE65%10000m1012hPa67%
18-Jun-2024 00:00Broken Clouds16°C4 mph, NE70%9122m1016hPa95%
18-Jun-2024 03:00Light Rain17°C2 mph, E99%10000m1018hPa93%
18-Jun-2024 06:00Light Rain16°C2 mph, NE97%10000m1017hPa94%
18-Jun-2024 09:00Light Rain16°C2 mph, NE93%10000m1016hPa94%
18-Jun-2024 12:00Overcast Clouds16°C2 mph, NE99%10000m1017hPa84%
18-Jun-2024 15:00Light Rain18°C4 mph, NE100%10000m1018hPa80%
18-Jun-2024 18:00Overcast Clouds23°C7 mph, NE85%10000m1012hPa58%
18-Jun-2024 21:00Light Rain21°C9 mph, NE72%10000m1011hPa73%
19-Jun-2024 00:00Light Rain17°C4 mph, NE82%10000m1015hPa94%
19-Jun-2024 03:00Light Rain16°C2 mph, NE100%10000m1017hPa95%
19-Jun-2024 06:00Light Rain17°C2 mph, SE100%9097m1016hPa92%
19-Jun-2024 09:00Light Rain16°C2 mph, SE100%10000m1015hPa87%
19-Jun-2024 12:00Light Rain16°C2 mph, NE100%10000m1017hPa88%
19-Jun-2024 15:00Light Rain19°C7 mph, NE100%10000m1017hPa73%
19-Jun-2024 18:00Light Rain19°C9 mph, NE100%10000m1015hPa77%
19-Jun-2024 21:00Light Rain19°C7 mph, NE100%10000m1013hPa74%
20-Jun-2024 00:00Light Rain16°C2 mph, NE100%9956m1016hPa92%
20-Jun-2024 03:00Light Rain16°C2 mph, E100%10000m1018hPa92%
20-Jun-2024 06:00Light Rain16°C2 mph, SE100%10000m1017hPa92%
20-Jun-2024 09:00Moderate Rain15°C4 mph, S100%10000m1017hPa90%
20-Jun-2024 12:00Light Rain16°C2 mph, S100%10000m1018hPa84%
20-Jun-2024 15:00Light Rain17°C0 mph, N100%10000m1020hPa77%
20-Jun-2024 18:00Light Rain18°C4 mph, NE100%10000m1017hPa68%
20-Jun-2024 21:00Overcast Clouds19°C9 mph, NE100%10000m1015hPa70%
21-Jun-2024 00:00Light Rain15°C2 mph, NE99%10000m1019hPa94%